Saint Martin, Minnesota
Current Conditions -  °F | °C
As of 9:14 AM on Friday 19 Dec 2014 (Local Time) from KPEX Reporting Station
Haze Haze  
Wind Chill: 13°   Ceiling: 400
Heat Index: 21°   Visibility: 1mi
Dew Point: 21°   Wind: 6mph
Humidity: 100%   Direction: 90°E
Pressure: 30.18"   Gusts: NA
Location:  45.5°N, 94.67°W
Report Text: KPEX 191514Z AUTO 09005KT 1SM BR OVC004 M06/M06 A3018 RMK AO2 T10621061
Loading
Personal Weather Stations






























Interactive Weather Map New forecast layout! Learn more

10-Day Weather Forecast

Advertisements
Track Severe Weather on mobile